createdAt,value
2022-10-11T00:00:09.090Z,18.96
2022-10-11T00:02:35.826Z,18.90
2022-10-11T00:05:02.856Z,18.80
2022-10-11T00:07:29.818Z,18.92
2022-10-11T00:09:56.613Z,18.89
2022-10-11T00:12:23.529Z,18.89
2022-10-11T00:14:50.230Z,18.84
2022-10-11T00:17:16.972Z,18.69
2022-10-11T00:19:43.838Z,18.72
2022-10-11T00:22:10.650Z,18.78
2022-10-11T00:24:37.364Z,18.80
2022-10-11T00:27:04.200Z,18.68
2022-10-11T00:29:30.905Z,18.74
2022-10-11T00:31:57.677Z,18.76
2022-10-11T00:34:24.565Z,18.69
2022-10-11T00:36:51.263Z,18.40
2022-10-11T00:39:20.724Z,18.72
2022-10-11T00:41:49.424Z,18.63
2022-10-11T00:44:17.683Z,18.67
2022-10-11T00:47:12.584Z,18.57
2022-10-11T00:49:44.217Z,18.62
2022-10-11T00:52:34.201Z,18.63
2022-10-11T00:55:12.614Z,18.53
2022-10-11T00:57:44.207Z,18.53
2022-10-11T01:00:13.962Z,18.58
2022-10-11T01:02:41.941Z,18.63
2022-10-11T01:05:28.553Z,18.62
2022-10-11T01:07:56.289Z,18.61
2022-10-11T01:10:24.879Z,18.58
2022-10-11T01:13:22.378Z,18.54
2022-10-11T01:16:04.746Z,18.49
2022-10-11T01:18:47.987Z,18.52
2022-10-11T01:21:34.185Z,18.54
2022-10-11T01:24:08.711Z,18.48
2022-10-11T01:27:00.597Z,18.40
2022-10-11T01:29:30.387Z,18.38
2022-10-11T01:32:19.395Z,18.14
2022-10-11T01:35:00.020Z,18.26
2022-10-11T01:37:35.591Z,18.38
2022-10-11T01:40:12.346Z,18.36
2022-10-11T01:42:41.462Z,18.41
2022-10-11T01:45:10.912Z,18.41
2022-10-11T01:47:39.191Z,18.36
2022-10-11T01:50:08.274Z,18.23
2022-10-11T01:52:42.025Z,18.22
2022-10-11T01:55:23.776Z,18.22
2022-10-11T01:58:09.968Z,18.27
2022-10-11T02:00:51.979Z,18.21
2022-10-11T02:04:08.055Z,18.20
2022-10-11T02:06:56.619Z,18.10
2022-10-11T02:09:26.733Z,18.21
2022-10-11T02:12:02.531Z,18.13
2022-10-11T02:14:34.332Z,18.23
2022-10-11T02:17:07.871Z,18.15
2022-10-11T02:19:45.712Z,18.20
2022-10-11T02:22:21.754Z,18.17
2022-10-11T02:24:52.028Z,18.13
2022-10-11T02:27:24.657Z,17.97
2022-10-11T02:29:54.048Z,17.99
2022-10-11T02:32:22.076Z,18.13
2022-10-11T02:34:55.060Z,18.14
2022-10-11T02:37:27.377Z,18.16
2022-10-11T02:40:18.013Z,18.12
2022-10-11T02:42:50.055Z,18.02
2022-10-11T02:45:21.519Z,18.13
2022-10-11T02:47:48.712Z,18.13
2022-10-11T02:50:16.270Z,18.09
2022-10-11T02:52:43.136Z,18.06
2022-10-11T02:55:11.206Z,17.93
2022-10-11T02:57:37.966Z,17.92
2022-10-11T03:00:05.815Z,18.07
2022-10-11T03:02:32.582Z,17.92
2022-10-11T03:04:59.296Z,18.03
2022-10-11T03:07:26.169Z,17.93
2022-10-11T03:09:52.851Z,17.84
2022-10-11T03:12:19.575Z,18.08
2022-10-11T03:14:46.439Z,18.06
2022-10-11T03:17:35.149Z,18.12
2022-10-11T03:20:00.092Z,18.09
2022-10-11T03:22:26.852Z,18.18
2022-10-11T03:24:53.557Z,18.14
2022-10-11T03:27:20.359Z,17.94
2022-10-11T03:29:47.053Z,18.21
2022-10-11T03:32:13.763Z,18.15
2022-10-11T03:34:40.516Z,18.27
2022-10-11T03:37:07.340Z,18.23
2022-10-11T03:39:34.174Z,18.16
2022-10-11T03:42:07.331Z,18.20
2022-10-11T03:44:40.106Z,18.10
2022-10-11T03:47:12.977Z,18.12
2022-10-11T03:49:43.422Z,18.18
2022-10-11T03:52:11.337Z,18.07
2022-10-11T03:54:38.141Z,18.09
2022-10-11T03:57:04.963Z,17.99
2022-10-11T03:59:33.678Z,18.11
2022-10-11T04:02:00.508Z,18.06
2022-10-11T04:04:27.250Z,18.01
2022-10-11T04:06:54.342Z,18.05
2022-10-11T04:09:21.039Z,18.09
2022-10-11T04:11:47.757Z,17.92
2022-10-11T04:14:14.973Z,18.06
2022-10-11T04:16:42.073Z,17.86
2022-10-11T04:19:08.977Z,17.88
2022-10-11T04:21:35.837Z,17.93
2022-10-11T04:24:02.621Z,17.86
2022-10-11T04:26:29.336Z,17.97
2022-10-11T04:28:56.219Z,17.97
2022-10-11T04:31:23.680Z,17.91
2022-10-11T04:33:50.434Z,17.96
2022-10-11T04:36:17.203Z,17.86
2022-10-11T04:38:43.908Z,17.87
2022-10-11T04:41:13.414Z,17.85
2022-10-11T04:43:40.695Z,17.85
2022-10-11T04:46:08.408Z,17.92
2022-10-11T04:48:35.599Z,17.89
2022-10-11T04:51:02.534Z,17.66
2022-10-11T04:53:29.269Z,17.73
2022-10-11T04:55:58.967Z,17.82
2022-10-11T04:58:25.815Z,17.87
2022-10-11T05:00:52.510Z,17.90
2022-10-11T05:03:19.260Z,17.89
2022-10-11T05:05:46.125Z,17.80
2022-10-11T05:08:13.099Z,17.81
2022-10-11T05:10:39.779Z,17.86
2022-10-11T05:13:07.033Z,17.80
2022-10-11T05:15:33.997Z,17.87
2022-10-11T05:18:00.833Z,17.86
2022-10-11T05:20:28.120Z,17.82
2022-10-11T05:22:54.868Z,17.79
2022-10-11T05:25:21.603Z,17.80
2022-10-11T05:27:48.926Z,17.71
2022-10-11T05:30:15.692Z,17.84
2022-10-11T05:32:42.371Z,17.83
2022-10-11T05:35:09.584Z,17.65
2022-10-11T05:37:36.372Z,17.72
2022-10-11T05:40:04.149Z,17.68
2022-10-11T05:42:30.924Z,17.48
2022-10-11T05:44:57.599Z,17.47
2022-10-11T05:47:24.444Z,17.49
2022-10-11T05:49:51.231Z,17.45
2022-10-11T05:52:21.607Z,17.51
2022-10-11T05:54:48.929Z,17.46
2022-10-11T05:57:16.654Z,17.48
2022-10-11T05:59:43.432Z,17.45
2022-10-11T06:02:13.826Z,17.38
2022-10-11T06:04:40.753Z,17.44
2022-10-11T06:07:09.021Z,17.36
2022-10-11T06:09:35.816Z,17.22
2022-10-11T06:12:03.041Z,17.26
2022-10-11T06:14:29.863Z,17.22
2022-10-11T06:16:56.553Z,17.14
2022-10-11T06:19:23.746Z,17.02
2022-10-11T06:21:50.507Z,17.17
2022-10-11T06:24:17.601Z,17.13
2022-10-11T06:26:44.359Z,17.07
2022-10-11T06:29:11.118Z,17.10
2022-10-11T06:31:37.986Z,17.12
2022-10-11T06:34:04.845Z,17.09
2022-10-11T06:36:31.548Z,17.13
2022-10-11T06:39:01.164Z,17.05
2022-10-11T06:41:30.500Z,17.05
2022-10-11T06:43:57.443Z,17.06
2022-10-11T06:46:26.307Z,17.03
2022-10-11T06:48:54.275Z,17.02
2022-10-11T06:51:22.521Z,17.01
2022-10-11T06:53:51.142Z,16.99
2022-10-11T06:56:19.337Z,16.99
2022-10-11T06:58:46.383Z,16.96
2022-10-11T07:01:18.856Z,16.95
2022-10-11T07:03:46.146Z,16.74
2022-10-11T07:06:15.424Z,16.87
2022-10-11T07:08:43.172Z,16.87
2022-10-11T07:11:11.098Z,16.88
2022-10-11T07:13:38.819Z,17.17
2022-10-11T07:16:08.139Z,17.20
2022-10-11T07:18:35.341Z,17.32
2022-10-11T07:21:11.913Z,17.39
2022-10-11T07:23:38.870Z,17.40
2022-10-11T07:26:07.555Z,17.44
2022-10-11T07:28:36.024Z,17.43
2022-10-11T07:31:10.432Z,17.51
2022-10-11T07:33:37.173Z,17.60
2022-10-11T07:36:05.217Z,17.67
2022-10-11T07:38:33.001Z,17.79
2022-10-11T07:41:00.137Z,17.79
2022-10-11T07:43:26.839Z,17.76
2022-10-11T07:45:55.832Z,18.18
2022-10-11T07:48:22.997Z,18.42
2022-10-11T07:50:49.695Z,18.47
2022-10-11T07:53:16.740Z,18.60
2022-10-11T07:55:43.491Z,18.86
2022-10-11T07:58:11.857Z,18.89
2022-10-11T08:00:42.390Z,19.08
2022-10-11T08:03:10.559Z,19.14
2022-10-11T08:05:39.189Z,19.49
2022-10-11T08:08:05.990Z,19.54
2022-10-11T08:10:38.427Z,19.89
2022-10-11T08:13:05.570Z,20.24
2022-10-11T08:15:32.554Z,20.47
2022-10-11T08:17:59.413Z,20.61
2022-10-11T08:20:27.649Z,21.11
2022-10-11T08:22:55.359Z,21.40
2022-10-11T08:25:22.076Z,21.64
2022-10-11T08:27:48.938Z,21.86
2022-10-11T08:30:15.960Z,21.97
2022-10-11T08:32:42.751Z,22.24
2022-10-11T08:35:09.490Z,22.51
2022-10-11T08:37:36.274Z,22.90
2022-10-11T08:40:03.622Z,23.11
2022-10-11T08:42:48.652Z,23.34
2022-10-11T08:45:32.117Z,23.79
2022-10-11T08:48:16.009Z,24.20
2022-10-11T08:50:46.617Z,24.76
2022-10-11T08:53:54.029Z,25.14
2022-10-11T08:56:22.843Z,25.49
2022-10-11T08:59:02.202Z,26.04
2022-10-11T09:01:31.255Z,26.32
2022-10-11T09:04:00.361Z,26.73
2022-10-11T09:06:30.528Z,27.09
2022-10-11T09:08:59.828Z,27.46
2022-10-11T09:11:46.940Z,27.81
2022-10-11T09:14:19.465Z,28.20
2022-10-11T09:17:22.015Z,28.44
2022-10-11T09:20:13.481Z,28.62
2022-10-11T09:23:19.380Z,28.88
2022-10-11T09:25:58.276Z,29.18
2022-10-11T09:28:46.342Z,29.46
2022-10-11T09:31:13.209Z,29.73
2022-10-11T09:33:51.572Z,29.88
2022-10-11T09:36:27.325Z,30.22
2022-10-11T09:39:06.895Z,30.17
2022-10-11T09:41:38.637Z,30.11
2022-10-11T09:44:07.759Z,30.43
2022-10-11T09:46:34.332Z,30.41
2022-10-11T09:49:08.071Z,30.55
2022-10-11T09:51:35.083Z,30.86
2022-10-11T09:54:05.198Z,31.00
2022-10-11T09:56:35.276Z,31.07
2022-10-11T09:59:21.205Z,31.26
2022-10-11T10:01:48.548Z,31.53
2022-10-11T10:04:17.320Z,31.85
2022-10-11T10:06:44.233Z,32.14
2022-10-11T10:09:31.177Z,32.31
2022-10-11T10:11:58.336Z,32.45
2022-10-11T10:14:29.136Z,32.67
2022-10-11T10:17:03.027Z,32.58
2022-10-11T10:19:47.600Z,32.82
2022-10-11T10:22:28.567Z,32.68
2022-10-11T10:24:57.131Z,32.85
2022-10-11T10:27:25.314Z,33.01
2022-10-11T10:30:08.486Z,33.30
2022-10-11T10:32:57.102Z,33.34
2022-10-11T10:35:44.869Z,33.06
2022-10-11T10:38:14.365Z,33.02
2022-10-11T10:40:59.159Z,33.12
2022-10-11T10:43:30.278Z,33.62
2022-10-11T10:46:24.926Z,33.96
2022-10-11T10:52:42.057Z,34.33
2022-10-11T10:55:33.736Z,34.55
2022-10-11T10:58:22.413Z,34.46
2022-10-11T11:00:52.035Z,34.79
2022-10-11T11:03:46.228Z,35.53
2022-10-11T11:06:35.691Z,35.99
2022-10-11T11:09:07.231Z,36.45
2022-10-11T11:11:36.893Z,36.61
2022-10-11T11:14:08.627Z,36.68
2022-10-11T11:17:00.504Z,36.77
2022-10-11T11:19:38.166Z,36.94
2022-10-11T11:22:04.896Z,37.30
2022-10-11T11:24:40.669Z,37.49
2022-10-11T11:27:10.496Z,37.77
2022-10-11T11:30:01.906Z,38.08
2022-10-11T11:32:49.419Z,38.00
2022-10-11T11:35:28.311Z,38.38
2022-10-11T11:38:06.385Z,38.60
2022-10-11T11:40:37.336Z,38.96
2022-10-11T11:43:19.201Z,38.94
2022-10-11T11:45:52.074Z,39.18
2022-10-11T11:48:24.663Z,39.75
2022-10-11T11:50:59.241Z,40.26
2022-10-11T11:53:43.631Z,40.73
2022-10-11T11:56:25.938Z,41.01
2022-10-11T11:59:19.769Z,41.10
2022-10-11T12:01:56.037Z,41.20
2022-10-11T12:04:28.632Z,41.67
2022-10-11T12:07:16.212Z,42.15
2022-10-11T12:09:47.013Z,42.51
2022-10-11T12:12:36.425Z,42.34
2022-10-11T12:15:09.164Z,41.50
2022-10-11T12:17:58.012Z,41.72
2022-10-11T12:20:30.945Z,41.43
2022-10-11T12:23:00.938Z,42.09
2022-10-11T12:25:28.593Z,42.26
2022-10-11T12:27:57.183Z,42.18
2022-10-11T12:30:48.552Z,42.92
2022-10-11T12:33:18.287Z,43.52
2022-10-11T12:35:54.479Z,44.04
2022-10-11T12:38:37.369Z,44.29
2022-10-11T12:41:10.434Z,44.40
2022-10-11T12:44:06.173Z,44.78
2022-10-11T12:46:40.569Z,44.65
2022-10-11T12:49:22.888Z,44.81
2022-10-11T12:52:20.398Z,45.20
2022-10-11T12:55:26.729Z,45.50
2022-10-11T12:57:56.798Z,45.30
2022-10-11T13:00:40.513Z,45.36
2022-10-11T13:03:32.557Z,45.71
2022-10-11T13:06:09.574Z,43.57
2022-10-11T13:08:40.426Z,40.96
2022-10-11T13:11:11.022Z,38.69
2022-10-11T13:13:42.646Z,37.22
2022-10-11T13:16:14.354Z,35.79
2022-10-11T13:18:48.217Z,34.76
2022-10-11T13:21:27.152Z,33.99
2022-10-11T13:24:16.189Z,32.89
2022-10-11T13:26:50.487Z,32.16
2022-10-11T13:29:26.375Z,31.67
2022-10-11T13:31:53.172Z,30.82
2022-10-11T13:34:23.386Z,30.95
2022-10-11T13:36:56.074Z,30.63
2022-10-11T13:39:31.257Z,30.05
2022-10-11T13:41:59.938Z,30.02
2022-10-11T13:44:27.352Z,29.48
2022-10-11T13:46:54.665Z,29.43
2022-10-11T13:49:31.717Z,29.09
2022-10-11T13:52:01.186Z,28.79
2022-10-11T13:55:05.318Z,28.58
2022-10-11T13:57:52.632Z,28.33
2022-10-11T14:00:32.632Z,28.20
2022-10-11T14:03:17.781Z,28.07
2022-10-11T14:05:54.561Z,27.72
2022-10-11T14:08:42.095Z,27.67
2022-10-11T14:11:11.596Z,27.45
2022-10-11T14:13:56.577Z,27.36
2022-10-11T14:16:23.330Z,27.40
2022-10-11T14:18:58.965Z,27.31
2022-10-11T14:21:46.740Z,27.12
2022-10-11T14:24:15.117Z,27.03
2022-10-11T14:26:48.507Z,26.97
2022-10-11T14:29:23.748Z,26.97
2022-10-11T14:31:51.208Z,26.72
2022-10-11T14:34:20.923Z,26.88
2022-10-11T14:36:48.393Z,26.68
2022-10-11T14:39:18.325Z,26.68
2022-10-11T14:41:45.581Z,26.50
2022-10-11T14:44:12.517Z,26.55
2022-10-11T14:46:41.188Z,26.31
2022-10-11T14:49:17.023Z,26.21
2022-10-11T14:51:47.551Z,26.00
2022-10-11T14:54:15.328Z,25.99
2022-10-11T14:56:42.270Z,25.88
2022-10-11T14:59:15.015Z,25.85
2022-10-11T15:01:42.088Z,25.99
2022-10-11T15:04:09.231Z,25.99
2022-10-11T15:06:38.999Z,26.02
2022-10-11T15:09:06.583Z,26.02
2022-10-11T15:11:33.765Z,25.91
2022-10-11T15:14:00.735Z,25.79
2022-10-11T15:16:27.465Z,25.80
2022-10-11T15:18:54.336Z,25.70
2022-10-11T15:21:24.026Z,25.36
2022-10-11T15:23:52.132Z,25.37
2022-10-11T15:26:29.603Z,25.40
2022-10-11T15:28:57.535Z,25.29
2022-10-11T15:31:24.516Z,25.19
2022-10-11T15:33:51.792Z,25.14
2022-10-11T15:36:21.531Z,25.17
2022-10-11T15:38:49.436Z,25.11
2022-10-11T15:41:18.965Z,25.09
2022-10-11T15:43:47.156Z,25.21
2022-10-11T15:46:17.639Z,25.14
2022-10-11T15:48:44.878Z,24.94
2022-10-11T15:51:11.761Z,25.08
2022-10-11T15:53:38.562Z,25.12
2022-10-11T15:56:08.406Z,25.15
2022-10-11T15:58:40.900Z,25.13
2022-10-11T16:01:11.892Z,25.08
2022-10-11T16:03:38.696Z,25.10
2022-10-11T16:06:06.088Z,24.95
2022-10-11T16:08:34.346Z,24.96
2022-10-11T16:11:01.675Z,24.90
2022-10-11T16:13:28.467Z,24.84
2022-10-11T16:15:55.400Z,24.73
2022-10-11T16:18:22.407Z,24.36
2022-10-11T16:20:52.080Z,24.65
2022-10-11T16:23:21.073Z,24.32
2022-10-11T16:26:03.758Z,24.42
2022-10-11T16:28:32.053Z,24.38
2022-10-11T16:30:59.168Z,24.27
2022-10-11T16:33:27.018Z,24.10
2022-10-11T16:35:54.006Z,24.10
2022-10-11T16:38:20.725Z,24.11
2022-10-11T16:40:47.470Z,24.14
2022-10-11T16:43:14.410Z,24.11
2022-10-11T16:45:41.132Z,24.11
2022-10-11T16:48:07.893Z,24.19
2022-10-11T16:50:39.329Z,24.19
2022-10-11T16:53:06.601Z,24.28
2022-10-11T16:55:33.335Z,24.22
2022-10-11T16:58:00.184Z,24.18
2022-10-11T17:00:26.903Z,24.04
2022-10-11T17:02:53.583Z,24.13
2022-10-11T17:05:20.495Z,24.22
2022-10-11T17:07:47.196Z,24.07
2022-10-11T17:10:13.973Z,23.94
2022-10-11T17:12:40.820Z,23.97
2022-10-11T17:15:10.781Z,23.94
2022-10-11T17:17:37.877Z,23.81
2022-10-11T17:20:05.187Z,23.82
2022-10-11T17:22:31.884Z,23.74
2022-10-11T17:25:01.516Z,23.73
2022-10-11T17:27:28.793Z,23.54
2022-10-11T17:29:55.530Z,23.43
2022-10-11T17:32:22.228Z,23.21
2022-10-11T17:34:49.039Z,23.12
2022-10-11T17:37:15.788Z,23.05
2022-10-11T17:39:43.011Z,22.91
2022-10-11T17:42:09.838Z,22.87
2022-10-11T17:44:36.639Z,22.79
2022-10-11T17:47:04.906Z,22.76
2022-10-11T17:49:31.910Z,22.52
2022-10-11T17:51:58.692Z,22.60
2022-10-11T17:54:26.123Z,22.59
2022-10-11T17:56:54.767Z,22.51
2022-10-11T17:59:21.944Z,21.90
2022-10-11T18:01:51.830Z,22.26
2022-10-11T18:04:21.585Z,22.11
2022-10-11T18:06:48.500Z,22.05
2022-10-11T18:09:17.571Z,21.76
2022-10-11T18:11:44.667Z,21.84
2022-10-11T18:14:11.427Z,21.86
2022-10-11T18:16:39.165Z,21.81
2022-10-11T18:19:11.297Z,21.75
2022-10-11T18:21:38.981Z,21.61
2022-10-11T18:24:13.053Z,21.54
2022-10-11T18:26:40.047Z,21.53
2022-10-11T18:29:07.125Z,21.69
2022-10-11T18:31:35.371Z,21.70
2022-10-11T18:34:03.296Z,21.44
2022-10-11T18:36:31.363Z,21.40
2022-10-11T18:39:00.879Z,21.60
2022-10-11T18:41:30.820Z,21.58
2022-10-11T18:44:04.518Z,21.49
2022-10-11T18:46:32.369Z,21.55
2022-10-11T18:49:02.177Z,21.52
2022-10-11T18:51:28.958Z,21.39
2022-10-11T18:53:58.502Z,21.50
2022-10-11T18:56:27.120Z,21.48
2022-10-11T18:58:55.727Z,21.43
2022-10-11T19:01:26.720Z,21.39
2022-10-11T19:03:56.837Z,21.42
2022-10-11T19:06:26.995Z,21.46
2022-10-11T19:09:01.966Z,21.34
2022-10-11T19:11:29.117Z,21.42
2022-10-11T19:14:00.029Z,21.44
2022-10-11T19:16:29.979Z,21.42
2022-10-11T19:18:57.324Z,21.32
2022-10-11T19:21:24.916Z,21.46
2022-10-11T19:23:52.535Z,21.36
2022-10-11T19:26:22.534Z,21.21
2022-10-11T19:28:55.433Z,21.27
2022-10-11T19:31:22.199Z,21.36
2022-10-11T19:33:49.717Z,21.37
2022-10-11T19:36:17.503Z,21.23
2022-10-11T19:38:46.622Z,21.14
2022-10-11T19:41:15.260Z,21.09
2022-10-11T19:43:42.862Z,21.08
2022-10-11T19:46:20.221Z,21.15
2022-10-11T19:48:54.544Z,20.80
2022-10-11T19:51:26.628Z,21.11
2022-10-11T19:53:56.999Z,21.08
2022-10-11T19:56:27.863Z,21.04
2022-10-11T19:58:55.166Z,21.02
2022-10-11T20:01:24.235Z,20.95
2022-10-11T20:03:54.018Z,20.95
2022-10-11T20:06:23.082Z,20.94
2022-10-11T20:09:10.327Z,20.73
2022-10-11T20:11:37.506Z,20.87
2022-10-11T20:14:04.621Z,20.86
2022-10-11T20:16:31.324Z,20.69
2022-10-11T20:18:59.377Z,20.81
2022-10-11T20:21:28.714Z,20.71
2022-10-11T20:24:01.353Z,20.63
2022-10-11T20:26:29.894Z,20.74
2022-10-11T20:28:57.342Z,20.72
2022-10-11T20:31:29.836Z,20.67
2022-10-11T20:33:58.575Z,20.70
2022-10-11T20:36:28.053Z,20.61
2022-10-11T20:38:54.956Z,20.68
2022-10-11T20:41:27.651Z,20.57
2022-10-11T20:43:56.852Z,20.73
2022-10-11T20:46:28.138Z,20.67
2022-10-11T20:49:01.547Z,20.70
2022-10-11T20:51:30.296Z,20.69
2022-10-11T20:53:57.460Z,20.56
2022-10-11T20:56:24.888Z,20.54
2022-10-11T20:58:53.780Z,20.72
2022-10-11T21:01:23.519Z,20.50
2022-10-11T21:03:50.568Z,20.69
2022-10-11T21:06:17.318Z,20.61
2022-10-11T21:08:44.901Z,20.67
2022-10-11T21:11:11.706Z,20.58
2022-10-11T21:13:38.615Z,20.63
2022-10-11T21:16:05.435Z,20.66
2022-10-11T21:18:32.349Z,20.47
2022-10-11T21:21:06.431Z,20.54
2022-10-11T21:23:33.624Z,20.48
2022-10-11T21:26:06.236Z,20.45
2022-10-11T21:28:34.070Z,20.50
2022-10-11T21:31:08.756Z,20.48
2022-10-11T21:33:36.184Z,20.57
2022-10-11T21:36:20.126Z,20.61
2022-10-11T21:38:46.957Z,20.64
2022-10-11T21:41:18.284Z,20.68
2022-10-11T21:43:45.859Z,20.71
2022-10-11T21:46:16.372Z,20.71
2022-10-11T21:48:43.358Z,20.63
2022-10-11T21:51:17.726Z,20.49
2022-10-11T21:53:44.416Z,20.47
2022-10-11T21:56:11.160Z,20.55
2022-10-11T21:58:37.980Z,20.38
2022-10-11T22:01:04.814Z,20.62
2022-10-11T22:03:31.633Z,20.52
2022-10-11T22:06:01.387Z,20.56
2022-10-11T22:08:28.089Z,20.25
2022-10-11T22:10:58.056Z,20.12
2022-10-11T22:13:25.772Z,20.30
2022-10-11T22:15:53.719Z,20.27
2022-10-11T22:18:20.800Z,20.33
2022-10-11T22:20:47.597Z,20.26
2022-10-11T22:23:14.357Z,20.19
2022-10-11T22:25:41.499Z,20.24
2022-10-11T22:28:08.857Z,19.89
2022-10-11T22:30:35.637Z,20.07
2022-10-11T22:33:02.391Z,20.05
2022-10-11T22:35:31.388Z,19.97
2022-10-11T22:38:00.333Z,20.11
2022-10-11T22:40:27.102Z,20.17
2022-10-11T22:42:53.923Z,20.05
2022-10-11T22:45:20.606Z,20.25
2022-10-11T22:47:47.291Z,20.19
2022-10-11T22:50:14.135Z,20.25
2022-10-11T22:52:40.887Z,20.16
2022-10-11T22:55:08.016Z,20.23
2022-10-11T22:57:35.146Z,20.17
2022-10-11T23:00:02.049Z,20.19
2022-10-11T23:02:28.845Z,20.10
2022-10-11T23:04:55.676Z,20.03
2022-10-11T23:07:22.424Z,20.01
2022-10-11T23:09:49.134Z,20.09
2022-10-11T23:12:16.006Z,20.04
2022-10-11T23:14:42.854Z,20.03
2022-10-11T23:17:09.561Z,20.07
2022-10-11T23:19:37.308Z,19.99
2022-10-11T23:22:04.095Z,20.00
2022-10-11T23:24:30.955Z,19.92
2022-10-11T23:26:57.765Z,20.05
2022-10-11T23:29:24.509Z,19.98
2022-10-11T23:31:51.634Z,19.60
2022-10-11T23:34:18.585Z,19.96
2022-10-11T23:36:45.343Z,19.95
2022-10-11T23:39:13.064Z,20.06
2022-10-11T23:41:39.885Z,20.00
2022-10-11T23:44:06.665Z,20.03
2022-10-11T23:46:33.493Z,20.05
2022-10-11T23:49:00.308Z,20.29
2022-10-11T23:51:27.196Z,20.29
2022-10-11T23:53:54.182Z,20.26
2022-10-11T23:56:21.542Z,20.28
2022-10-11T23:58:48.322Z,20.26
